sensor_id;sensor_type;location;lat;lon;timestamp;temperature;humidity
6581;DHT22;3324;50.796;7.228;2023-05-27T00:00:04;13.00;99.90
6581;DHT22;3324;50.796;7.228;2023-05-27T00:02:31;12.90;99.90
6581;DHT22;3324;50.796;7.228;2023-05-27T00:04:57;12.90;99.90
6581;DHT22;3324;50.796;7.228;2023-05-27T00:07:23;13.00;99.90
6581;DHT22;3324;50.796;7.228;2023-05-27T00:09:48;13.00;99.90
6581;DHT22;3324;50.796;7.228;2023-05-27T00:12:14;12.90;99.90
6581;DHT22;3324;50.796;7.228;2023-05-27T00:14:40;13.00;99.90
6581;DHT22;3324;50.796;7.228;2023-05-27T00:17:06;12.80;99.90
6581;DHT22;3324;50.796;7.228;2023-05-27T00:19:34;12.80;99.90
6581;DHT22;3324;50.796;7.228;2023-05-27T00:22:00;12.60;99.90
6581;DHT22;3324;50.796;7.228;2023-05-27T00:24:25;12.60;99.90
6581;DHT22;3324;50.796;7.228;2023-05-27T00:26:51;12.70;99.90
6581;DHT22;3324;50.796;7.228;2023-05-27T00:29:17;12.60;99.90
6581;DHT22;3324;50.796;7.228;2023-05-27T00:31:43;12.40;99.90
6581;DHT22;3324;50.796;7.228;2023-05-27T00:34:08;12.40;99.90
6581;DHT22;3324;50.796;7.228;2023-05-27T00:36:34;12.40;99.90
6581;DHT22;3324;50.796;7.228;2023-05-27T00:39:00;12.30;99.90
6581;DHT22;3324;50.796;7.228;2023-05-27T00:41:26;12.30;99.90
6581;DHT22;3324;50.796;7.228;2023-05-27T00:43:52;12.30;99.90
6581;DHT22;3324;50.796;7.228;2023-05-27T00:46:18;12.20;99.90
6581;DHT22;3324;50.796;7.228;2023-05-27T00:48:45;12.20;99.90
6581;DHT22;3324;50.796;7.228;2023-05-27T00:51:12;12.20;99.90
6581;DHT22;3324;50.796;7.228;2023-05-27T00:53:42;12.20;99.90
6581;DHT22;3324;50.796;7.228;2023-05-27T00:56:10;12.10;99.90
6581;DHT22;3324;50.796;7.228;2023-05-27T00:58:36;12.00;99.90
6581;DHT22;3324;50.796;7.228;2023-05-27T01:01:03;12.00;99.90
6581;DHT22;3324;50.796;7.228;2023-05-27T01:03:30;12.00;99.90
6581;DHT22;3324;50.796;7.228;2023-05-27T01:08:51;12.00;99.90
6581;DHT22;3324;50.796;7.228;2023-05-27T01:11:21;12.00;99.90
6581;DHT22;3324;50.796;7.228;2023-05-27T01:13:56;11.90;99.90
6581;DHT22;3324;50.796;7.228;2023-05-27T01:16:24;11.90;99.90
6581;DHT22;3324;50.796;7.228;2023-05-27T01:18:54;11.80;99.90
6581;DHT22;3324;50.796;7.228;2023-05-27T01:21:21;11.80;99.90
6581;DHT22;3324;50.796;7.228;2023-05-27T01:23:51;11.80;99.90
6581;DHT22;3324;50.796;7.228;2023-05-27T01:26:16;11.80;99.90
6581;DHT22;3324;50.796;7.228;2023-05-27T01:28:42;11.80;99.90
6581;DHT22;3324;50.796;7.228;2023-05-27T01:33:35;11.80;99.90
6581;DHT22;3324;50.796;7.228;2023-05-27T01:36:07;11.70;99.90
6581;DHT22;3324;50.796;7.228;2023-05-27T01:38:36;11.80;99.90
6581;DHT22;3324;50.796;7.228;2023-05-27T01:41:05;11.70;99.90
6581;DHT22;3324;50.796;7.228;2023-05-27T01:43:31;11.60;99.90
6581;DHT22;3324;50.796;7.228;2023-05-27T01:45:57;11.50;99.90
6581;DHT22;3324;50.796;7.228;2023-05-27T01:48:22;11.50;99.90
6581;DHT22;3324;50.796;7.228;2023-05-27T01:50:48;11.40;99.90
6581;DHT22;3324;50.796;7.228;2023-05-27T01:53:14;11.30;99.90
6581;DHT22;3324;50.796;7.228;2023-05-27T01:55:39;11.30;99.90
6581;DHT22;3324;50.796;7.228;2023-05-27T01:58:05;11.20;99.90
6581;DHT22;3324;50.796;7.228;2023-05-27T02:00:30;11.20;99.90
6581;DHT22;3324;50.796;7.228;2023-05-27T02:02:56;11.20;99.90
6581;DHT22;3324;50.796;7.228;2023-05-27T02:05:22;11.10;99.90
6581;DHT22;3324;50.796;7.228;2023-05-27T02:07:47;11.10;99.90
6581;DHT22;3324;50.796;7.228;2023-05-27T02:10:13;11.00;99.90
6581;DHT22;3324;50.796;7.228;2023-05-27T02:12:38;10.90;99.90
6581;DHT22;3324;50.796;7.228;2023-05-27T02:15:04;10.90;99.90
6581;DHT22;3324;50.796;7.228;2023-05-27T02:17:30;10.90;99.90
6581;DHT22;3324;50.796;7.228;2023-05-27T02:19:56;10.80;99.90
6581;DHT22;3324;50.796;7.228;2023-05-27T02:22:22;10.80;99.90
6581;DHT22;3324;50.796;7.228;2023-05-27T02:24:47;10.80;99.90
6581;DHT22;3324;50.796;7.228;2023-05-27T02:27:13;10.70;99.90
6581;DHT22;3324;50.796;7.228;2023-05-27T02:29:39;10.60;99.90
6581;DHT22;3324;50.796;7.228;2023-05-27T02:32:04;10.60;99.90
6581;DHT22;3324;50.796;7.228;2023-05-27T02:34:31;10.60;99.90
6581;DHT22;3324;50.796;7.228;2023-05-27T02:36:57;10.70;99.90
6581;DHT22;3324;50.796;7.228;2023-05-27T02:39:22;10.70;99.90
6581;DHT22;3324;50.796;7.228;2023-05-27T02:41:48;10.50;99.90
6581;DHT22;3324;50.796;7.228;2023-05-27T02:44:14;10.40;99.90
6581;DHT22;3324;50.796;7.228;2023-05-27T02:46:39;10.50;99.90
6581;DHT22;3324;50.796;7.228;2023-05-27T02:49:05;10.40;99.90
6581;DHT22;3324;50.796;7.228;2023-05-27T02:51:30;10.30;99.90
6581;DHT22;3324;50.796;7.228;2023-05-27T02:53:56;10.30;99.90
6581;DHT22;3324;50.796;7.228;2023-05-27T02:56:22;10.30;99.90
6581;DHT22;3324;50.796;7.228;2023-05-27T02:58:47;10.30;99.90
6581;DHT22;3324;50.796;7.228;2023-05-27T03:01:13;10.20;99.90
6581;DHT22;3324;50.796;7.228;2023-05-27T03:03:38;10.30;99.90
6581;DHT22;3324;50.796;7.228;2023-05-27T03:06:04;10.10;99.90
6581;DHT22;3324;50.796;7.228;2023-05-27T03:08:30;10.10;99.90
6581;DHT22;3324;50.796;7.228;2023-05-27T03:10:56;10.20;99.90
6581;DHT22;3324;50.796;7.228;2023-05-27T03:13:22;10.00;99.90
6581;DHT22;3324;50.796;7.228;2023-05-27T03:15:47;10.00;99.90
6581;DHT22;3324;50.796;7.228;2023-05-27T03:18:13;10.00;99.90
6581;DHT22;3324;50.796;7.228;2023-05-27T03:20:39;10.00;99.90
6581;DHT22;3324;50.796;7.228;2023-05-27T03:23:05;10.00;99.90
6581;DHT22;3324;50.796;7.228;2023-05-27T03:25:30;10.00;99.90
6581;DHT22;3324;50.796;7.228;2023-05-27T03:27:58;9.90;99.90
6581;DHT22;3324;50.796;7.228;2023-05-27T03:30:25;10.00;99.90
6581;DHT22;3324;50.796;7.228;2023-05-27T03:32:51;10.00;99.90
6581;DHT22;3324;50.796;7.228;2023-05-27T03:35:17;9.90;99.90
6581;DHT22;3324;50.796;7.228;2023-05-27T03:37:42;9.80;99.90
6581;DHT22;3324;50.796;7.228;2023-05-27T03:40:08;9.70;99.90
6581;DHT22;3324;50.796;7.228;2023-05-27T03:42:34;9.70;99.90
6581;DHT22;3324;50.796;7.228;2023-05-27T03:45:00;9.70;99.90
6581;DHT22;3324;50.796;7.228;2023-05-27T03:47:26;9.80;99.90
6581;DHT22;3324;50.796;7.228;2023-05-27T03:49:52;9.80;99.90
6581;DHT22;3324;50.796;7.228;2023-05-27T03:52:17;9.70;99.90
6581;DHT22;3324;50.796;7.228;2023-05-27T03:54:43;9.80;99.90
6581;DHT22;3324;50.796;7.228;2023-05-27T03:57:09;9.80;99.90
6581;DHT22;3324;50.796;7.228;2023-05-27T03:59:36;9.70;99.90
6581;DHT22;3324;50.796;7.228;2023-05-27T04:02:01;9.80;99.90
6581;DHT22;3324;50.796;7.228;2023-05-27T04:04:27;9.80;99.90
6581;DHT22;3324;50.796;7.228;2023-05-27T04:06:52;9.80;99.90
6581;DHT22;3324;50.796;7.228;2023-05-27T04:09:19;9.80;99.90
6581;DHT22;3324;50.796;7.228;2023-05-27T04:11:44;9.80;99.90
6581;DHT22;3324;50.796;7.228;2023-05-27T04:14:10;9.90;99.90
6581;DHT22;3324;50.796;7.228;2023-05-27T04:16:36;9.90;99.90
6581;DHT22;3324;50.796;7.228;2023-05-27T04:19:02;9.90;99.90
6581;DHT22;3324;50.796;7.228;2023-05-27T04:21:27;9.90;99.90
6581;DHT22;3324;50.796;7.228;2023-05-27T04:23:53;10.00;99.90
6581;DHT22;3324;50.796;7.228;2023-05-27T04:26:19;9.90;99.90
6581;DHT22;3324;50.796;7.228;2023-05-27T04:28:45;10.00;99.90
6581;DHT22;3324;50.796;7.228;2023-05-27T04:31:12;10.10;99.90
6581;DHT22;3324;50.796;7.228;2023-05-27T04:33:41;10.30;99.90
6581;DHT22;3324;50.796;7.228;2023-05-27T04:36:07;10.30;99.90
6581;DHT22;3324;50.796;7.228;2023-05-27T04:38:33;10.40;99.90
6581;DHT22;3324;50.796;7.228;2023-05-27T04:40:59;10.40;99.90
6581;DHT22;3324;50.796;7.228;2023-05-27T04:43:26;10.50;99.90
6581;DHT22;3324;50.796;7.228;2023-05-27T04:45:55;10.50;99.90
6581;DHT22;3324;50.796;7.228;2023-05-27T04:48:21;10.60;99.90
6581;DHT22;3324;50.796;7.228;2023-05-27T04:50:49;10.60;99.90
6581;DHT22;3324;50.796;7.228;2023-05-27T04:53:19;10.60;99.90
6581;DHT22;3324;50.796;7.228;2023-05-27T04:55:44;10.70;99.90
6581;DHT22;3324;50.796;7.228;2023-05-27T04:58:11;10.70;99.90
6581;DHT22;3324;50.796;7.228;2023-05-27T05:00:36;10.80;99.90
6581;DHT22;3324;50.796;7.228;2023-05-27T05:03:16;10.80;99.90
6581;DHT22;3324;50.796;7.228;2023-05-27T05:05:48;10.90;99.90
6581;DHT22;3324;50.796;7.228;2023-05-27T05:08:14;10.90;99.90
6581;DHT22;3324;50.796;7.228;2023-05-27T05:10:40;11.00;99.90
6581;DHT22;3324;50.796;7.228;2023-05-27T05:13:06;11.10;99.90
6581;DHT22;3324;50.796;7.228;2023-05-27T05:15:31;11.20;99.90
6581;DHT22;3324;50.796;7.228;2023-05-27T05:17:57;11.20;99.90
6581;DHT22;3324;50.796;7.228;2023-05-27T05:20:22;11.40;99.90
6581;DHT22;3324;50.796;7.228;2023-05-27T05:22:48;11.40;99.90
6581;DHT22;3324;50.796;7.228;2023-05-27T05:25:14;11.50;99.90
6581;DHT22;3324;50.796;7.228;2023-05-27T05:27:41;11.60;99.90
6581;DHT22;3324;50.796;7.228;2023-05-27T05:30:08;11.70;99.90
6581;DHT22;3324;50.796;7.228;2023-05-27T05:32:34;11.80;99.90
6581;DHT22;3324;50.796;7.228;2023-05-27T05:34:59;11.90;99.90
6581;DHT22;3324;50.796;7.228;2023-05-27T05:37:25;12.00;99.90
6581;DHT22;3324;50.796;7.228;2023-05-27T05:39:50;12.10;99.90
6581;DHT22;3324;50.796;7.228;2023-05-27T05:42:16;12.20;99.90
6581;DHT22;3324;50.796;7.228;2023-05-27T05:44:42;12.20;99.90
6581;DHT22;3324;50.796;7.228;2023-05-27T05:47:08;12.30;99.90
6581;DHT22;3324;50.796;7.228;2023-05-27T05:49:33;12.20;99.90
6581;DHT22;3324;50.796;7.228;2023-05-27T05:51:59;12.30;99.90
6581;DHT22;3324;50.796;7.228;2023-05-27T05:54:25;12.30;99.90
6581;DHT22;3324;50.796;7.228;2023-05-27T05:56:51;12.40;99.90
6581;DHT22;3324;50.796;7.228;2023-05-27T05:59:17;12.60;99.90
6581;DHT22;3324;50.796;7.228;2023-05-27T06:01:42;12.70;99.90
6581;DHT22;3324;50.796;7.228;2023-05-27T06:04:08;12.70;99.90
6581;DHT22;3324;50.796;7.228;2023-05-27T06:06:33;12.80;99.90
6581;DHT22;3324;50.796;7.228;2023-05-27T06:08:59;12.90;99.90
6581;DHT22;3324;50.796;7.228;2023-05-27T06:11:25;13.00;99.90
6581;DHT22;3324;50.796;7.228;2023-05-27T06:13:51;13.10;99.90
6581;DHT22;3324;50.796;7.228;2023-05-27T06:16:17;13.10;99.90
6581;DHT22;3324;50.796;7.228;2023-05-27T06:18:42;13.20;99.90
6581;DHT22;3324;50.796;7.228;2023-05-27T06:21:11;13.20;99.90
6581;DHT22;3324;50.796;7.228;2023-05-27T06:23:37;13.30;99.90
6581;DHT22;3324;50.796;7.228;2023-05-27T06:26:03;13.50;99.90
6581;DHT22;3324;50.796;7.228;2023-05-27T06:28:29;13.60;99.90
6581;DHT22;3324;50.796;7.228;2023-05-27T06:30:54;13.60;99.90
6581;DHT22;3324;50.796;7.228;2023-05-27T06:33:21;13.70;99.90
6581;DHT22;3324;50.796;7.228;2023-05-27T06:35:46;13.80;99.90
6581;DHT22;3324;50.796;7.228;2023-05-27T06:38:12;13.90;99.90
6581;DHT22;3324;50.796;7.228;2023-05-27T06:40:38;13.90;99.90
6581;DHT22;3324;50.796;7.228;2023-05-27T06:43:03;14.00;99.90
6581;DHT22;3324;50.796;7.228;2023-05-27T06:45:29;14.20;99.90
6581;DHT22;3324;50.796;7.228;2023-05-27T06:47:57;14.40;99.90
6581;DHT22;3324;50.796;7.228;2023-05-27T06:50:22;14.50;99.90
6581;DHT22;3324;50.796;7.228;2023-05-27T06:52:49;14.60;99.90
6581;DHT22;3324;50.796;7.228;2023-05-27T06:55:14;14.70;99.90
6581;DHT22;3324;50.796;7.228;2023-05-27T06:57:40;14.80;99.90
6581;DHT22;3324;50.796;7.228;2023-05-27T07:00:06;14.90;99.90
6581;DHT22;3324;50.796;7.228;2023-05-27T07:02:33;14.90;99.90
6581;DHT22;3324;50.796;7.228;2023-05-27T07:04:59;14.90;99.90
6581;DHT22;3324;50.796;7.228;2023-05-27T07:07:24;14.90;99.90
6581;DHT22;3324;50.796;7.228;2023-05-27T07:09:50;15.00;99.90
6581;DHT22;3324;50.796;7.228;2023-05-27T07:12:16;15.10;99.90
6581;DHT22;3324;50.796;7.228;2023-05-27T07:14:42;15.30;99.90
6581;DHT22;3324;50.796;7.228;2023-05-27T07:17:08;15.50;99.90
6581;DHT22;3324;50.796;7.228;2023-05-27T07:19:33;15.60;99.90
6581;DHT22;3324;50.796;7.228;2023-05-27T07:21:59;15.70;99.90
6581;DHT22;3324;50.796;7.228;2023-05-27T07:24:24;15.80;99.90
6581;DHT22;3324;50.796;7.228;2023-05-27T07:26:50;16.00;99.90
6581;DHT22;3324;50.796;7.228;2023-05-27T07:29:16;16.20;99.90
6581;DHT22;3324;50.796;7.228;2023-05-27T07:31:42;16.30;99.90
6581;DHT22;3324;50.796;7.228;2023-05-27T07:34:07;16.50;99.90
6581;DHT22;3324;50.796;7.228;2023-05-27T07:36:33;16.60;99.90
6581;DHT22;3324;50.796;7.228;2023-05-27T07:38:59;16.80;99.90
6581;DHT22;3324;50.796;7.228;2023-05-27T07:41:24;16.90;99.90
6581;DHT22;3324;50.796;7.228;2023-05-27T07:43:51;17.10;99.90
6581;DHT22;3324;50.796;7.228;2023-05-27T07:46:17;17.20;99.90
6581;DHT22;3324;50.796;7.228;2023-05-27T07:48:42;17.30;99.90
6581;DHT22;3324;50.796;7.228;2023-05-27T07:51:08;17.50;99.90
6581;DHT22;3324;50.796;7.228;2023-05-27T07:53:33;17.70;99.90
6581;DHT22;3324;50.796;7.228;2023-05-27T07:55:59;17.70;99.90
6581;DHT22;3324;50.796;7.228;2023-05-27T07:58:25;17.80;99.90
6581;DHT22;3324;50.796;7.228;2023-05-27T08:00:51;18.00;99.90
6581;DHT22;3324;50.796;7.228;2023-05-27T08:03:16;18.20;99.90
6581;DHT22;3324;50.796;7.228;2023-05-27T08:05:42;18.30;99.90
6581;DHT22;3324;50.796;7.228;2023-05-27T08:08:07;18.50;99.90
6581;DHT22;3324;50.796;7.228;2023-05-27T08:10:33;18.60;99.90
6581;DHT22;3324;50.796;7.228;2023-05-27T08:12:59;18.70;99.90
6581;DHT22;3324;50.796;7.228;2023-05-27T08:15:24;18.70;99.90
6581;DHT22;3324;50.796;7.228;2023-05-27T08:17:50;18.80;99.90
6581;DHT22;3324;50.796;7.228;2023-05-27T08:20:16;18.90;99.90
6581;DHT22;3324;50.796;7.228;2023-05-27T08:22:42;19.10;99.90
6581;DHT22;3324;50.796;7.228;2023-05-27T08:25:08;19.20;99.90
6581;DHT22;3324;50.796;7.228;2023-05-27T08:30:14;19.50;99.90
6581;DHT22;3324;50.796;7.228;2023-05-27T08:32:43;19.60;99.90
6581;DHT22;3324;50.796;7.228;2023-05-27T08:35:09;19.70;99.90
6581;DHT22;3324;50.796;7.228;2023-05-27T08:37:37;19.80;99.90
6581;DHT22;3324;50.796;7.228;2023-05-27T08:40:03;19.80;99.90
6581;DHT22;3324;50.796;7.228;2023-05-27T08:42:33;19.90;99.90
6581;DHT22;3324;50.796;7.228;2023-05-27T08:44:59;20.00;99.90
6581;DHT22;3324;50.796;7.228;2023-05-27T08:47:28;20.10;99.90
6581;DHT22;3324;50.796;7.228;2023-05-27T08:49:56;20.30;99.90
6581;DHT22;3324;50.796;7.228;2023-05-27T08:52:24;20.30;99.90
6581;DHT22;3324;50.796;7.228;2023-05-27T08:54:50;20.50;99.90
6581;DHT22;3324;50.796;7.228;2023-05-27T08:57:20;20.60;99.90
6581;DHT22;3324;50.796;7.228;2023-05-27T08:59:52;20.80;99.90
6581;DHT22;3324;50.796;7.228;2023-05-27T09:02:20;20.90;99.90
6581;DHT22;3324;50.796;7.228;2023-05-27T09:04:47;21.00;99.90
6581;DHT22;3324;50.796;7.228;2023-05-27T09:07:13;21.00;99.90
6581;DHT22;3324;50.796;7.228;2023-05-27T09:09:40;21.10;99.90
6581;DHT22;3324;50.796;7.228;2023-05-27T09:12:06;21.20;99.90
6581;DHT22;3324;50.796;7.228;2023-05-27T09:14:34;21.30;99.90
6581;DHT22;3324;50.796;7.228;2023-05-27T09:17:07;21.40;99.90
6581;DHT22;3324;50.796;7.228;2023-05-27T09:19:33;21.60;99.80
6581;DHT22;3324;50.796;7.228;2023-05-27T09:21:59;21.70;99.50
6581;DHT22;3324;50.796;7.228;2023-05-27T09:24:26;21.80;98.00
6581;DHT22;3324;50.796;7.228;2023-05-27T09:26:51;21.90;97.70
6581;DHT22;3324;50.796;7.228;2023-05-27T09:29:26;21.90;97.30
6581;DHT22;3324;50.796;7.228;2023-05-27T09:31:55;21.90;96.60
6581;DHT22;3324;50.796;7.228;2023-05-27T09:34:21;22.00;97.40
6581;DHT22;3324;50.796;7.228;2023-05-27T09:36:48;22.00;97.20
6581;DHT22;3324;50.796;7.228;2023-05-27T09:39:16;22.00;96.20
6581;DHT22;3324;50.796;7.228;2023-05-27T09:41:42;22.10;95.90
6581;DHT22;3324;50.796;7.228;2023-05-27T09:44:08;22.30;95.90
6581;DHT22;3324;50.796;7.228;2023-05-27T09:46:34;22.40;96.20
6581;DHT22;3324;50.796;7.228;2023-05-27T09:49:01;22.30;96.50
6581;DHT22;3324;50.796;7.228;2023-05-27T09:51:28;22.30;95.60
6581;DHT22;3324;50.796;7.228;2023-05-27T09:53:54;22.30;95.70
6581;DHT22;3324;50.796;7.228;2023-05-27T09:56:28;22.40;95.50
6581;DHT22;3324;50.796;7.228;2023-05-27T09:58:57;22.60;95.20
6581;DHT22;3324;50.796;7.228;2023-05-27T10:01:26;22.90;95.10
6581;DHT22;3324;50.796;7.228;2023-05-27T10:03:54;22.90;94.80
6581;DHT22;3324;50.796;7.228;2023-05-27T10:06:20;23.00;92.30
6581;DHT22;3324;50.796;7.228;2023-05-27T10:08:47;23.10;92.20
6581;DHT22;3324;50.796;7.228;2023-05-27T10:11:13;23.20;92.20
6581;DHT22;3324;50.796;7.228;2023-05-27T10:13:39;23.20;91.50
6581;DHT22;3324;50.796;7.228;2023-05-27T10:16:05;23.20;92.40
6581;DHT22;3324;50.796;7.228;2023-05-27T10:18:31;23.30;93.10
6581;DHT22;3324;50.796;7.228;2023-05-27T10:21:03;23.30;91.50
6581;DHT22;3324;50.796;7.228;2023-05-27T10:23:30;23.50;92.10
6581;DHT22;3324;50.796;7.228;2023-05-27T10:26:07;23.70;92.20
6581;DHT22;3324;50.796;7.228;2023-05-27T10:28:37;23.70;91.40
6581;DHT22;3324;50.796;7.228;2023-05-27T10:31:15;23.90;91.70
6581;DHT22;3324;50.796;7.228;2023-05-27T10:33:48;24.10;91.10
6581;DHT22;3324;50.796;7.228;2023-05-27T10:36:26;24.10;88.40
6581;DHT22;3324;50.796;7.228;2023-05-27T10:39:17;24.00;90.00
6581;DHT22;3324;50.796;7.228;2023-05-27T10:41:49;24.10;88.00
6581;DHT22;3324;50.796;7.228;2023-05-27T10:47:10;23.90;83.50
6581;DHT22;3324;50.796;7.228;2023-05-27T10:49:38;24.00;86.60
6581;DHT22;3324;50.796;7.228;2023-05-27T10:52:12;24.10;85.30
6581;DHT22;3324;50.796;7.228;2023-05-27T10:54:45;24.20;85.60
6581;DHT22;3324;50.796;7.228;2023-05-27T10:57:12;24.30;79.60
6581;DHT22;3324;50.796;7.228;2023-05-27T10:59:54;24.30;82.20
6581;DHT22;3324;50.796;7.228;2023-05-27T11:02:21;24.40;80.40
6581;DHT22;3324;50.796;7.228;2023-05-27T11:04:50;24.30;78.10
6581;DHT22;3324;50.796;7.228;2023-05-27T11:07:20;24.10;76.80
6581;DHT22;3324;50.796;7.228;2023-05-27T11:09:51;24.20;78.30
6581;DHT22;3324;50.796;7.228;2023-05-27T11:12:18;24.20;77.70
6581;DHT22;3324;50.796;7.228;2023-05-27T11:14:45;24.20;78.30
6581;DHT22;3324;50.796;7.228;2023-05-27T11:17:12;24.40;82.60
6581;DHT22;3324;50.796;7.228;2023-05-27T11:19:41;24.40;79.50
6581;DHT22;3324;50.796;7.228;2023-05-27T11:22:08;24.40;76.00
6581;DHT22;3324;50.796;7.228;2023-05-27T11:24:35;24.40;76.50
6581;DHT22;3324;50.796;7.228;2023-05-27T11:27:11;24.40;75.40
6581;DHT22;3324;50.796;7.228;2023-05-27T11:29:37;24.40;78.40
6581;DHT22;3324;50.796;7.228;2023-05-27T11:32:04;24.40;75.80
6581;DHT22;3324;50.796;7.228;2023-05-27T11:34:33;24.50;76.10
6581;DHT22;3324;50.796;7.228;2023-05-27T11:37:02;24.80;74.30
6581;DHT22;3324;50.796;7.228;2023-05-27T11:39:30;25.00;74.00
6581;DHT22;3324;50.796;7.228;2023-05-27T11:41:55;25.20;76.00
6581;DHT22;3324;50.796;7.228;2023-05-27T11:44:22;25.20;73.20
6581;DHT22;3324;50.796;7.228;2023-05-27T11:46:50;25.20;72.40
6581;DHT22;3324;50.796;7.228;2023-05-27T11:49:18;25.20;79.40
6581;DHT22;3324;50.796;7.228;2023-05-27T11:51:46;25.40;72.60
6581;DHT22;3324;50.796;7.228;2023-05-27T11:54:29;25.50;77.50
6581;DHT22;3324;50.796;7.228;2023-05-27T11:56:57;25.60;72.50
6581;DHT22;3324;50.796;7.228;2023-05-27T11:59:24;25.80;77.30
6581;DHT22;3324;50.796;7.228;2023-05-27T12:01:51;25.80;70.30
6581;DHT22;3324;50.796;7.228;2023-05-27T12:04:17;25.80;69.80
6581;DHT22;3324;50.796;7.228;2023-05-27T12:06:44;25.80;71.00
6581;DHT22;3324;50.796;7.228;2023-05-27T12:09:10;25.70;67.80
6581;DHT22;3324;50.796;7.228;2023-05-27T12:11:37;25.60;69.00
6581;DHT22;3324;50.796;7.228;2023-05-27T12:14:03;25.60;69.90
6581;DHT22;3324;50.796;7.228;2023-05-27T12:16:29;25.60;66.80
6581;DHT22;3324;50.796;7.228;2023-05-27T12:18:55;25.60;68.40
6581;DHT22;3324;50.796;7.228;2023-05-27T12:21:21;25.50;68.80
6581;DHT22;3324;50.796;7.228;2023-05-27T12:23:47;25.70;70.40
6581;DHT22;3324;50.796;7.228;2023-05-27T12:26:14;25.70;68.80
6581;DHT22;3324;50.796;7.228;2023-05-27T12:28:40;25.80;65.00
6581;DHT22;3324;50.796;7.228;2023-05-27T12:31:06;26.00;66.80
6581;DHT22;3324;50.796;7.228;2023-05-27T12:33:32;26.00;58.60
6581;DHT22;3324;50.796;7.228;2023-05-27T12:35:58;26.00;58.20
6581;DHT22;3324;50.796;7.228;2023-05-27T12:38:24;26.00;56.80
6581;DHT22;3324;50.796;7.228;2023-05-27T12:40:50;26.00;57.00
6581;DHT22;3324;50.796;7.228;2023-05-27T12:43:17;26.20;59.60
6581;DHT22;3324;50.796;7.228;2023-05-27T12:45:43;26.30;59.70
6581;DHT22;3324;50.796;7.228;2023-05-27T12:48:11;26.40;56.90
6581;DHT22;3324;50.796;7.228;2023-05-27T12:50:36;26.40;57.40
6581;DHT22;3324;50.796;7.228;2023-05-27T12:53:02;26.30;56.40
6581;DHT22;3324;50.796;7.228;2023-05-27T12:55:28;26.00;55.10
6581;DHT22;3324;50.796;7.228;2023-05-27T12:57:54;25.90;55.30
6581;DHT22;3324;50.796;7.228;2023-05-27T13:00:20;25.90;55.70
6581;DHT22;3324;50.796;7.228;2023-05-27T13:02:47;26.00;55.60
6581;DHT22;3324;50.796;7.228;2023-05-27T13:05:14;25.90;55.50
6581;DHT22;3324;50.796;7.228;2023-05-27T13:07:40;26.00;58.30
6581;DHT22;3324;50.796;7.228;2023-05-27T13:10:11;26.00;56.00
6581;DHT22;3324;50.796;7.228;2023-05-27T13:12:36;26.10;53.50
6581;DHT22;3324;50.796;7.228;2023-05-27T13:15:02;26.00;53.50
6581;DHT22;3324;50.796;7.228;2023-05-27T13:17:31;26.00;53.60
6581;DHT22;3324;50.796;7.228;2023-05-27T13:19:57;26.00;53.50
6581;DHT22;3324;50.796;7.228;2023-05-27T13:22:23;26.10;54.10
6581;DHT22;3324;50.796;7.228;2023-05-27T13:24:49;26.10;54.40
6581;DHT22;3324;50.796;7.228;2023-05-27T13:27:15;26.10;54.00
6581;DHT22;3324;50.796;7.228;2023-05-27T13:29:41;26.10;51.90
6581;DHT22;3324;50.796;7.228;2023-05-27T13:32:07;26.10;52.50
6581;DHT22;3324;50.796;7.228;2023-05-27T13:34:34;26.10;56.30
6581;DHT22;3324;50.796;7.228;2023-05-27T13:37:00;26.20;56.60
6581;DHT22;3324;50.796;7.228;2023-05-27T13:39:25;26.30;54.60
6581;DHT22;3324;50.796;7.228;2023-05-27T13:41:51;26.30;56.00
6581;DHT22;3324;50.796;7.228;2023-05-27T13:44:16;26.30;51.90
6581;DHT22;3324;50.796;7.228;2023-05-27T13:46:42;26.30;52.90
6581;DHT22;3324;50.796;7.228;2023-05-27T13:49:08;26.00;53.50
6581;DHT22;3324;50.796;7.228;2023-05-27T13:51:33;25.90;52.80
6581;DHT22;3324;50.796;7.228;2023-05-27T13:54:07;25.90;52.90
6581;DHT22;3324;50.796;7.228;2023-05-27T13:56:33;25.90;51.80
6581;DHT22;3324;50.796;7.228;2023-05-27T13:58:59;25.80;53.30
6581;DHT22;3324;50.796;7.228;2023-05-27T14:01:28;25.80;51.00
6581;DHT22;3324;50.796;7.228;2023-05-27T14:03:54;25.80;52.50
6581;DHT22;3324;50.796;7.228;2023-05-27T14:06:20;26.00;53.50
6581;DHT22;3324;50.796;7.228;2023-05-27T14:08:45;25.80;52.70
6581;DHT22;3324;50.796;7.228;2023-05-27T14:11:11;25.90;51.80
6581;DHT22;3324;50.796;7.228;2023-05-27T14:13:37;25.90;53.50
6581;DHT22;3324;50.796;7.228;2023-05-27T14:16:03;25.70;51.00
6581;DHT22;3324;50.796;7.228;2023-05-27T14:18:29;25.60;51.90
6581;DHT22;3324;50.796;7.228;2023-05-27T14:20:54;25.50;52.30
6581;DHT22;3324;50.796;7.228;2023-05-27T14:23:20;25.40;52.80
6581;DHT22;3324;50.796;7.228;2023-05-27T14:25:45;25.40;51.20
6581;DHT22;3324;50.796;7.228;2023-05-27T14:28:11;25.40;53.20
6581;DHT22;3324;50.796;7.228;2023-05-27T14:30:36;25.50;53.40
6581;DHT22;3324;50.796;7.228;2023-05-27T14:33:05;25.50;55.10
6581;DHT22;3324;50.796;7.228;2023-05-27T14:35:38;25.50;52.00
6581;DHT22;3324;50.796;7.228;2023-05-27T14:38:04;25.50;51.50
6581;DHT22;3324;50.796;7.228;2023-05-27T14:40:30;25.40;52.50
6581;DHT22;3324;50.796;7.228;2023-05-27T14:42:56;25.30;51.50
6581;DHT22;3324;50.796;7.228;2023-05-27T14:45:22;25.30;52.10
6581;DHT22;3324;50.796;7.228;2023-05-27T14:47:51;25.30;52.30
6581;DHT22;3324;50.796;7.228;2023-05-27T14:50:17;25.20;52.50
6581;DHT22;3324;50.796;7.228;2023-05-27T14:52:43;25.20;53.50
6581;DHT22;3324;50.796;7.228;2023-05-27T14:55:09;25.10;52.50
6581;DHT22;3324;50.796;7.228;2023-05-27T14:57:35;25.10;54.00
6581;DHT22;3324;50.796;7.228;2023-05-27T15:00:06;25.10;52.50
6581;DHT22;3324;50.796;7.228;2023-05-27T15:02:36;25.20;52.70
6581;DHT22;3324;50.796;7.228;2023-05-27T15:05:03;25.20;52.40
6581;DHT22;3324;50.796;7.228;2023-05-27T15:07:32;25.20;52.40
6581;DHT22;3324;50.796;7.228;2023-05-27T15:10:00;25.20;52.20
6581;DHT22;3324;50.796;7.228;2023-05-27T15:12:28;25.20;51.40
6581;DHT22;3324;50.796;7.228;2023-05-27T15:15:03;25.10;52.20
6581;DHT22;3324;50.796;7.228;2023-05-27T15:17:29;25.00;52.40
6581;DHT22;3324;50.796;7.228;2023-05-27T15:19:55;24.90;52.50
6581;DHT22;3324;50.796;7.228;2023-05-27T15:22:21;24.80;51.50
6581;DHT22;3324;50.796;7.228;2023-05-27T15:24:46;24.70;51.70
6581;DHT22;3324;50.796;7.228;2023-05-27T15:27:12;24.70;52.90
6581;DHT22;3324;50.796;7.228;2023-05-27T15:29:37;24.80;52.70
6581;DHT22;3324;50.796;7.228;2023-05-27T15:32:03;24.80;51.40
6581;DHT22;3324;50.796;7.228;2023-05-27T15:34:29;24.90;51.00
6581;DHT22;3324;50.796;7.228;2023-05-27T15:36:54;24.80;50.60
6581;DHT22;3324;50.796;7.228;2023-05-27T15:39:20;24.80;51.60
6581;DHT22;3324;50.796;7.228;2023-05-27T15:41:45;24.70;52.00
6581;DHT22;3324;50.796;7.228;2023-05-27T15:44:11;24.70;52.30
6581;DHT22;3324;50.796;7.228;2023-05-27T15:46:37;24.70;50.60
6581;DHT22;3324;50.796;7.228;2023-05-27T15:49:02;24.60;51.10
6581;DHT22;3324;50.796;7.228;2023-05-27T15:51:28;24.60;52.80
6581;DHT22;3324;50.796;7.228;2023-05-27T15:53:53;24.50;48.80
6581;DHT22;3324;50.796;7.228;2023-05-27T15:56:19;24.40;48.50
6581;DHT22;3324;50.796;7.228;2023-05-27T15:58:44;24.30;48.40
6581;DHT22;3324;50.796;7.228;2023-05-27T16:01:10;24.40;50.30
6581;DHT22;3324;50.796;7.228;2023-05-27T16:03:35;24.40;50.30
6581;DHT22;3324;50.796;7.228;2023-05-27T16:06:01;24.30;50.20
6581;DHT22;3324;50.796;7.228;2023-05-27T16:08:31;24.30;50.50